Amagi Galaxy — V7VE9 — position and weather

sailwx.info

Track history (hours):
 
Tides and Currents Weather Stations Pressure Air Temp Water Temp Dewpoint Dewpoint Depression Visibility Wind Speed Wind Dir Waves Ship Positions

Amagi Galaxy

Last reported at 2018-Apr-24 23:27 UTC. Time now 2018-Apr-25 22:07 UTC.
Position N 31°58' E 120°24'.

Length 152 m; draft 7.1 m.

Type: Ship (hazmat cat B). MMSI: 538004105.

Date/timePositionNaut miles runAvg speedWind from/ knotsBaromVisibWave heightAir tempDewpointWater temp
2018-Apr-24 23:27N 31°58' E 120°24'1 0.3
2018-Apr-24 20:19N 31°58' E 120°25'0 0.0
2018-Apr-24 15:52N 31°58' E 120°25'0 0.0
2018-Apr-24 09:25N 31°58' E 120°25'0 0.1
2018-Apr-24 08:49N 31°58' E 120°25'1 3.8
2018-Apr-24 08:30N 31°58' E 120°26'0 0.3
2018-Apr-24 08:00N 31°58' E 120°26'0 0.0
2018-Apr-24 07:30N 31°58' E 120°26'0 0.0
2018-Apr-24 07:00N 31°58' E 120°26'0 0.0
2018-Apr-24 06:30N 31°58' E 120°26'0 0.0
2018-Apr-24 06:00N 31°58' E 120°26'0 0.0
2018-Apr-24 05:30N 31°58' E 120°26'0 0.0
2018-Apr-24 05:00N 31°58' E 120°26'0 0.0
2018-Apr-24 04:30N 31°58' E 120°26'0 0.0
2018-Apr-24 04:00N 31°58' E 120°26'0 0.0
2018-Apr-24 03:27N 31°58' E 120°26'0 0.0
2018-Apr-24 03:00N 31°58' E 120°26'0 0.0
2018-Apr-24 02:30N 31°58' E 120°26'0 0.0
2018-Apr-24 02:00N 31°58' E 120°26'0 0.0
2018-Apr-24 01:30N 31°58' E 120°26'0 0.0
2018-Apr-24 00:54N 31°58' E 120°26'0 0.0
2018-Apr-24 00:30N 31°58' E 120°26'0 0.0
2018-Apr-24 00:00N 31°58' E 120°26'0 0.0
2018-Apr-23 23:30N 31°58' E 120°26'0 0.0
2018-Apr-23 23:00N 31°58' E 120°26'0 0.0
2018-Apr-23 22:30N 31°58' E 120°26'0 0.0
2018-Apr-23 22:00N 31°58' E 120°26'0 0.0
2018-Apr-23 21:30N 31°58' E 120°26'0 0.0
2018-Apr-23 21:00N 31°58' E 120°26'0 0.0
2018-Apr-23 20:30N 31°58' E 120°26'0 0.0
2018-Apr-23 20:00N 31°58' E 120°26'0 0.0
2018-Apr-23 19:30N 31°58' E 120°26'0 0.0
2018-Apr-23 19:00N 31°58' E 120°26'0 0.0
2018-Apr-23 18:30N 31°58' E 120°26'0 0.0
2018-Apr-23 18:00N 31°58' E 120°26'0 0.0
2018-Apr-23 17:30N 31°58' E 120°26'0 0.0
2018-Apr-23 17:00N 31°58' E 120°26'0 0.0
2018-Apr-23 16:30N 31°58' E 120°26'0 0.0
2018-Apr-23 16:00N 31°58' E 120°26'0 0.0
2018-Apr-23 15:30N 31°58' E 120°26'0 0.0
2018-Apr-23 15:00N 31°58' E 120°26'0 0.0
2018-Apr-23 14:30N 31°58' E 120°26'0 0.0
2018-Apr-23 14:00N 31°58' E 120°26'0 0.0
2018-Apr-23 13:30N 31°58' E 120°26'0 0.0
2018-Apr-23 13:00N 31°58' E 120°26'0 0.0
2018-Apr-23 12:30N 31°58' E 120°26'0 0.0
2018-Apr-23 11:57N 31°58' E 120°26'0 0.0
2018-Apr-23 11:24N 31°58' E 120°26'0 0.0
2018-Apr-23 11:00N 31°58' E 120°26'0 0.0
2018-Apr-23 10:30N 31°58' E 120°26'0 0.0
2018-Apr-23 10:00N 31°58' E 120°26'0 0.0
2018-Apr-23 09:30N 31°58' E 120°26'0 0.0
2018-Apr-23 08:51N 31°58' E 120°26'0 0.0
2018-Apr-23 08:21N 31°58' E 120°26'0 0.0
2018-Apr-23 08:00N 31°58' E 120°26'2 3.3
2018-Apr-23 07:30N 31°60' E 120°27'3 6.1
2018-Apr-23 07:00N 32°02' E 120°30'3 0.7
2018-Apr-23 02:27N 32°01' E 120°33'0 0.0
2018-Apr-22 16:39N 32°01' E 120°33'0 0.0
2018-Apr-22 12:06N 32°01' E 120°33'0 0.0
2018-Apr-22 06:39N 32°01' E 120°33'1 7.7
2018-Apr-22 06:30N 32°01' E 120°32'612.1
2018-Apr-22 06:00N 32°01' E 120°25'2 0.1
2018-Apr-20 11:23N 32°00' E 120°22'410.5
2018-Apr-20 11:00N 32°02' E 120°27'612.3
2018-Apr-20 10:30N 32°01' E 120°34'3110.5
2018-Apr-20 07:35N 31°45' E 121°05'113.0
2018-Apr-20 07:29N 31°44' E 121°06'613.0
2018-Apr-20 06:59N 31°40' E 121°12'613.0
2018-Apr-20 06:30N 31°36' E 121°17'612.5
2018-Apr-20 06:00N 31°32' E 121°23'611.7
2018-Apr-20 05:27N 31°27' E 121°28'4 9.0
2018-Apr-20 04:59N 31°25' E 121°32'16 9.7
2018-Apr-20 03:22N 31°17' E 121°48'28 8.8
2018-Apr-20 00:12N 31°06' E 122°18'2 8.0
2018-Apr-19 23:54N 31°06' E 122°21'13 2.7
2018-Apr-19 19:07N 31°02' E 122°36'0 0.0
2018-Apr-19 18:43N 31°02' E 122°36'0 0.0
2018-Apr-19 18:10N 31°02' E 122°36'0 0.0
2018-Apr-19 17:58N 31°02' E 122°36'0 0.1
2018-Apr-19 17:29N 31°02' E 122°36'0 0.1
2018-Apr-19 16:49N 31°02' E 122°36'0 0.0
2018-Apr-19 15:55N 31°02' E 122°36'0 0.1
2018-Apr-19 12:40N 31°02' E 122°36'0 0.0
2018-Apr-19 12:25N 31°02' E 122°36'0 0.0
2018-Apr-19 11:58N 31°02' E 122°36'65 6.8
2018-Apr-19 02:21N 31°08' E 123°51'512.5
2018-Apr-19 01:58N 31°11' E 123°56'612.6
2018-Apr-19 01:29N 31°15' E 124°02'613.7
2018-Apr-19 01:00N 31°17' E 124°09'1914.4
2018-Apr-18 23:39N 31°26' E 124°29'214.4
2018-Apr-18 23:30N 31°27' E 124°31'2213.8
2018-Apr-18 21:54N 31°37' E 124°54'29313.0
2018-Apr-17 23:21N 34°17' E 129°48'613.3
2018-Apr-17 22:54N 34°21' E 129°53'613.3
2018-Apr-17 22:26N 34°25' E 129°59'613.3
2018-Apr-17 22:00N 34°29' E 130°04'713.2
2018-Apr-17 21:28N 34°33' E 130°11'  
2018-Apr-15 16:32N 41°25' E 140°27'511.1
2018-Apr-15 16:07N 41°28' E 140°32'111.1
2018-Apr-15 16:00N 41°28' E 140°33'611.8
2018-Apr-15 15:30N 41°32' E 140°39'510.4
2018-Apr-15 15:00N 41°35' E 140°45'5 9.3
2018-Apr-15 14:31N 41°37' E 140°51'4 8.1
2018-Apr-15 14:00N 41°38' E 140°56'4 7.9
2018-Apr-15 13:30N 41°38' E 141°01'5 9.0
2018-Apr-15 12:57N 41°37' E 141°08'510.7
2018-Apr-15 12:30N 41°39' E 141°14'510.7
2018-Apr-15 12:00N 41°39' E 141°21'610.4
2018-Apr-15 11:25N 41°39' E 141°29'410.2
2018-Apr-15 11:00N 41°38' E 141°35'  
Track history (hours):
 
Tides and Currents Weather Stations Pressure Air Temp Water Temp Dewpoint Dewpoint Depression Visibility Wind Speed Wind Dir Waves Ship Positions

Amagi Galaxy

Last reported at 2018-Apr-24 23:27 UTC. Time now 2018-Apr-25 22:07 UTC.
Position N 31°58' E 120°24'.

Length 152 m; draft 7.1 m.

Type: Ship (hazmat cat B). MMSI: 538004105.

Date/timePositionNaut miles runAvg speedWind from/ knotsBaromVisibWave heightAir tempDewpointWater temp
2018-Apr-24 23:27N 31°58' E 120°24'1 0.3
2018-Apr-24 20:19N 31°58' E 120°25'0 0.0
2018-Apr-24 15:52N 31°58' E 120°25'0 0.0
2018-Apr-24 09:25N 31°58' E 120°25'0 0.1
2018-Apr-24 08:49N 31°58' E 120°25'1 3.8
2018-Apr-24 08:30N 31°58' E 120°26'0 0.3
2018-Apr-24 08:00N 31°58' E 120°26'0 0.0
2018-Apr-24 07:30N 31°58' E 120°26'0 0.0
2018-Apr-24 07:00N 31°58' E 120°26'0 0.0
2018-Apr-24 06:30N 31°58' E 120°26'0 0.0
2018-Apr-24 06:00N 31°58' E 120°26'0 0.0
2018-Apr-24 05:30N 31°58' E 120°26'0 0.0
2018-Apr-24 05:00N 31°58' E 120°26'0 0.0
2018-Apr-24 04:30N 31°58' E 120°26'0 0.0
2018-Apr-24 04:00N 31°58' E 120°26'0 0.0
2018-Apr-24 03:27N 31°58' E 120°26'0 0.0
2018-Apr-24 03:00N 31°58' E 120°26'0 0.0
2018-Apr-24 02:30N 31°58' E 120°26'0 0.0
2018-Apr-24 02:00N 31°58' E 120°26'0 0.0
2018-Apr-24 01:30N 31°58' E 120°26'0 0.0
2018-Apr-24 00:54N 31°58' E 120°26'0 0.0
2018-Apr-24 00:30N 31°58' E 120°26'0 0.0
2018-Apr-24 00:00N 31°58' E 120°26'0 0.0
2018-Apr-23 23:30N 31°58' E 120°26'0 0.0
2018-Apr-23 23:00N 31°58' E 120°26'0 0.0
2018-Apr-23 22:30N 31°58' E 120°26'0 0.0
2018-Apr-23 22:00N 31°58' E 120°26'0 0.0
2018-Apr-23 21:30N 31°58' E 120°26'0 0.0
2018-Apr-23 21:00N 31°58' E 120°26'0 0.0
2018-Apr-23 20:30N 31°58' E 120°26'0 0.0
2018-Apr-23 20:00N 31°58' E 120°26'0 0.0
2018-Apr-23 19:30N 31°58' E 120°26'0 0.0
2018-Apr-23 19:00N 31°58' E 120°26'0 0.0
2018-Apr-23 18:30N 31°58' E 120°26'0 0.0
2018-Apr-23 18:00N 31°58' E 120°26'0 0.0
2018-Apr-23 17:30N 31°58' E 120°26'0 0.0
2018-Apr-23 17:00N 31°58' E 120°26'0 0.0
2018-Apr-23 16:30N 31°58' E 120°26'0 0.0
2018-Apr-23 16:00N 31°58' E 120°26'0 0.0
2018-Apr-23 15:30N 31°58' E 120°26'0 0.0
2018-Apr-23 15:00N 31°58' E 120°26'0 0.0
2018-Apr-23 14:30N 31°58' E 120°26'0 0.0
2018-Apr-23 14:00N 31°58' E 120°26'0 0.0
2018-Apr-23 13:30N 31°58' E 120°26'0 0.0
2018-Apr-23 13:00N 31°58' E 120°26'0 0.0
2018-Apr-23 12:30N 31°58' E 120°26'0 0.0
2018-Apr-23 11:57N 31°58' E 120°26'0 0.0
2018-Apr-23 11:24N 31°58' E 120°26'0 0.0
2018-Apr-23 11:00N 31°58' E 120°26'0 0.0
2018-Apr-23 10:30N 31°58' E 120°26'0 0.0
2018-Apr-23 10:00N 31°58' E 120°26'0 0.0
2018-Apr-23 09:30N 31°58' E 120°26'0 0.0
2018-Apr-23 08:51N 31°58' E 120°26'0 0.0
2018-Apr-23 08:21N 31°58' E 120°26'0 0.0
2018-Apr-23 08:00N 31°58' E 120°26'2 3.3
2018-Apr-23 07:30N 31°60' E 120°27'3 6.1
2018-Apr-23 07:00N 32°02' E 120°30'3 0.7
2018-Apr-23 02:27N 32°01' E 120°33'0 0.0
2018-Apr-22 16:39N 32°01' E 120°33'0 0.0
2018-Apr-22 12:06N 32°01' E 120°33'0 0.0
2018-Apr-22 06:39N 32°01' E 120°33'1 7.7
2018-Apr-22 06:30N 32°01' E 120°32'612.1
2018-Apr-22 06:00N 32°01' E 120°25'2 0.1
2018-Apr-20 11:23N 32°00' E 120°22'410.5
2018-Apr-20 11:00N 32°02' E 120°27'612.3
2018-Apr-20 10:30N 32°01' E 120°34'3110.5
2018-Apr-20 07:35N 31°45' E 121°05'113.0
2018-Apr-20 07:29N 31°44' E 121°06'613.0
2018-Apr-20 06:59N 31°40' E 121°12'613.0
2018-Apr-20 06:30N 31°36' E 121°17'612.5
2018-Apr-20 06:00N 31°32' E 121°23'611.7
2018-Apr-20 05:27N 31°27' E 121°28'4 9.0
2018-Apr-20 04:59N 31°25' E 121°32'16 9.7
2018-Apr-20 03:22N 31°17' E 121°48'28 8.8
2018-Apr-20 00:12N 31°06' E 122°18'2 8.0
2018-Apr-19 23:54N 31°06' E 122°21'13 2.7
2018-Apr-19 19:07N 31°02' E 122°36'0 0.0
2018-Apr-19 18:43N 31°02' E 122°36'0 0.0
2018-Apr-19 18:10N 31°02' E 122°36'0 0.0
2018-Apr-19 17:58N 31°02' E 122°36'0 0.1
2018-Apr-19 17:29N 31°02' E 122°36'0 0.1
2018-Apr-19 16:49N 31°02' E 122°36'0 0.0
2018-Apr-19 15:55N 31°02' E 122°36'0 0.1
2018-Apr-19 12:40N 31°02' E 122°36'0 0.0
2018-Apr-19 12:25N 31°02' E 122°36'0 0.0
2018-Apr-19 11:58N 31°02' E 122°36'65 6.8
2018-Apr-19 02:21N 31°08' E 123°51'512.5
2018-Apr-19 01:58N 31°11' E 123°56'612.6
2018-Apr-19 01:29N 31°15' E 124°02'613.7
2018-Apr-19 01:00N 31°17' E 124°09'1914.4
2018-Apr-18 23:39N 31°26' E 124°29'214.4
2018-Apr-18 23:30N 31°27' E 124°31'2213.8
2018-Apr-18 21:54N 31°37' E 124°54'29313.0
2018-Apr-17 23:21N 34°17' E 129°48'613.3
2018-Apr-17 22:54N 34°21' E 129°53'613.3
2018-Apr-17 22:26N 34°25' E 129°59'613.3
2018-Apr-17 22:00N 34°29' E 130°04'713.2
2018-Apr-17 21:28N 34°33' E 130°11'  
2018-Apr-15 16:32N 41°25' E 140°27'511.1
2018-Apr-15 16:07N 41°28' E 140°32'111.1
2018-Apr-15 16:00N 41°28' E 140°33'611.8
2018-Apr-15 15:30N 41°32' E 140°39'510.4
2018-Apr-15 15:00N 41°35' E 140°45'5 9.3
2018-Apr-15 14:31N 41°37' E 140°51'4 8.1
2018-Apr-15 14:00N 41°38' E 140°56'4 7.9
2018-Apr-15 13:30N 41°38' E 141°01'5 9.0
2018-Apr-15 12:57N 41°37' E 141°08'510.7
2018-Apr-15 12:30N 41°39' E 141°14'510.7
2018-Apr-15 12:00N 41°39' E 141°21'610.4
2018-Apr-15 11:25N 41°39' E 141°29'410.2
2018-Apr-15 11:00N 41°38' E 141°35'  

Dump ship's entire track history